createdAt,value
2019-04-21T00:02:47.622Z,60.51
2019-04-21T00:06:11.470Z,59.46
2019-04-21T00:09:27.398Z,60.72
2019-04-21T00:12:31.454Z,58.82
2019-04-21T00:15:28.912Z,59.57
2019-04-21T00:18:41.805Z,57.68
2019-04-21T00:21:49.484Z,59.81
2019-04-21T00:25:09.666Z,61.62
2019-04-21T00:28:27.153Z,59.33
2019-04-21T00:31:24.892Z,61.56
2019-04-21T00:34:15.348Z,62.64
2019-04-21T00:37:41.199Z,62.52
2019-04-21T00:40:53.939Z,62.61
2019-04-21T00:43:56.009Z,63.13
2019-04-21T00:47:01.907Z,61.36
2019-04-21T00:50:17.988Z,61.97
2019-04-21T00:53:44.048Z,61.41
2019-04-21T00:56:54.202Z,62.12
2019-04-21T01:00:00.897Z,61.15
2019-04-21T01:03:13.104Z,60.84
2019-04-21T01:06:18.791Z,62.98
2019-04-21T01:09:13.545Z,62.32
2019-04-21T01:12:33.411Z,62.79
2019-04-21T01:15:47.464Z,66.01
2019-04-21T01:18:47.912Z,64.97
2019-04-21T01:21:33.704Z,63.89
2019-04-21T01:24:45.225Z,63.31
2019-04-21T01:28:07.269Z,63.31
2019-04-21T01:31:14.494Z,61.77
2019-04-21T01:34:28.832Z,64.97
2019-04-21T01:37:40.921Z,62.99
2019-04-21T01:41:03.814Z,64.83
2019-04-21T01:43:52.786Z,67.07
2019-04-21T01:46:54.511Z,66.73
2019-04-21T01:49:56.787Z,69.09
2019-04-21T01:53:38.552Z,68.99
2019-04-21T01:56:56.958Z,69.91
2019-04-21T01:59:57.031Z,70.57
2019-04-21T02:03:37.474Z,69.64
2019-04-21T02:06:21.167Z,68.02
2019-04-21T02:09:38.260Z,68.42
2019-04-21T02:12:48.718Z,68.05
2019-04-21T02:15:59.378Z,68.26
2019-04-21T02:18:58.577Z,66.16
2019-04-21T02:22:02.138Z,68.56
2019-04-21T02:25:23.147Z,68.79
2019-04-21T02:28:36.742Z,70.10
2019-04-21T02:35:03.898Z,70.59
2019-04-21T02:38:00.842Z,71.04
2019-04-21T02:41:21.388Z,70.72
2019-04-21T02:47:43.188Z,70.43
2019-04-21T02:56:56.187Z,71.53
2019-04-21T03:03:22.931Z,72.82
2019-04-21T03:13:06.007Z,71.52
2019-04-21T03:19:33.015Z,71.41
2019-04-21T03:22:24.896Z,71.74
2019-04-21T03:28:39.692Z,71.51
2019-04-21T03:32:16.783Z,72.66
2019-04-21T03:35:37.815Z,71.25
2019-04-21T03:41:12.627Z,70.70
2019-04-21T03:44:22.976Z,72.12
2019-04-21T03:47:30.622Z,72.04
2019-04-21T03:50:47.238Z,72.05
2019-04-21T04:00:24.985Z,72.09
2019-04-21T04:03:52.217Z,72.13
2019-04-21T04:07:04.327Z,72.43
2019-04-21T04:10:07.698Z,73.09
2019-04-21T04:13:20.376Z,72.93
2019-04-21T04:16:28.801Z,73.11
2019-04-21T04:19:37.843Z,73.24
2019-04-21T04:22:51.794Z,73.75
2019-04-21T04:25:51.576Z,73.93
2019-04-21T04:29:01.352Z,74.13
2019-04-21T04:31:57.219Z,73.89
2019-04-21T04:35:10.220Z,72.92
2019-04-21T04:41:46.594Z,72.75
2019-04-21T04:44:54.284Z,71.12
2019-04-21T04:47:59.770Z,73.46
2019-04-21T04:54:06.819Z,72.51
2019-04-21T04:57:21.725Z,70.93
2019-04-21T05:00:34.897Z,71.37
2019-04-21T05:03:43.810Z,71.28
2019-04-21T05:06:51.299Z,70.56
2019-04-21T05:09:57.586Z,71.26
2019-04-21T05:13:04.212Z,70.66
2019-04-21T05:16:09.841Z,70.40
2019-04-21T05:25:19.553Z,68.66
2019-04-21T05:28:24.467Z,66.90
2019-04-21T05:32:04.958Z,66.90
2019-04-21T05:35:16.335Z,64.89
2019-04-21T05:38:28.861Z,63.63
2019-04-21T05:41:26.378Z,62.13
2019-04-21T05:48:12.141Z,59.74
2019-04-21T05:51:08.920Z,58.42
2019-04-21T05:54:29.667Z,56.67
2019-04-21T05:57:32.270Z,55.96
2019-04-21T06:01:03.513Z,54.96
2019-04-21T06:03:52.726Z,54.10
2019-04-21T06:07:05.776Z,53.55
2019-04-21T06:10:08.870Z,53.69
2019-04-21T06:13:22.183Z,53.15
2019-04-21T06:16:21.463Z,53.11
2019-04-21T06:19:38.258Z,52.70
2019-04-21T06:22:39.689Z,52.78
2019-04-21T06:25:54.653Z,52.27
2019-04-21T06:28:51.821Z,52.33
2019-04-21T06:32:20.439Z,52.05
2019-04-21T06:35:41.318Z,52.69
2019-04-21T06:39:04.734Z,52.42
2019-04-21T06:42:07.425Z,52.70
2019-04-21T06:45:12.959Z,51.82
2019-04-21T06:48:25.492Z,51.81
2019-04-21T06:54:44.766Z,51.34
2019-04-21T06:57:46.318Z,50.82
2019-04-21T07:00:50.970Z,50.57
2019-04-21T07:04:11.263Z,50.39
2019-04-21T07:07:06.823Z,50.26
2019-04-21T07:10:22.818Z,49.82
2019-04-21T07:13:29.093Z,49.48
2019-04-21T07:16:38.636Z,49.18
2019-04-21T07:19:49.760Z,48.82
2019-04-21T07:23:09.295Z,48.53
2019-04-21T07:26:01.005Z,48.38
2019-04-21T07:29:12.233Z,48.02
2019-04-21T07:32:14.104Z,48.07
2019-04-21T07:35:25.040Z,48.00
2019-04-21T07:38:33.200Z,48.02
2019-04-21T07:41:38.547Z,47.99
2019-04-21T07:44:40.468Z,47.97
2019-04-21T07:48:01.577Z,47.69
2019-04-21T07:51:28.433Z,47.59
2019-04-21T07:57:36.637Z,46.74
2019-04-21T08:03:58.139Z,46.10
2019-04-21T08:06:57.119Z,45.02
2019-04-21T08:10:09.123Z,44.59
2019-04-21T08:13:31.705Z,44.29
2019-04-21T08:19:32.191Z,43.15
2019-04-21T08:22:48.026Z,42.77
2019-04-21T08:25:59.520Z,42.87
2019-04-21T08:29:10.572Z,40.89
2019-04-21T08:32:11.939Z,40.91
2019-04-21T08:38:20.863Z,39.85
2019-04-21T08:41:34.552Z,40.23
2019-04-21T08:44:40.076Z,39.89
2019-04-21T08:51:05.956Z,38.77
2019-04-21T08:54:09.498Z,38.81
2019-04-21T08:57:28.984Z,38.27
2019-04-21T09:00:40.233Z,37.66
2019-04-21T09:04:11.689Z,38.33
2019-04-21T09:07:12.830Z,37.27
2019-04-21T09:10:23.521Z,37.09
2019-04-21T09:13:35.529Z,36.42
2019-04-21T09:16:30.657Z,39.19
2019-04-21T09:19:53.346Z,37.70
2019-04-21T09:22:57.107Z,38.21
2019-04-21T09:25:58.845Z,38.22
2019-04-21T09:29:01.787Z,37.12
2019-04-21T09:32:01.099Z,36.99
2019-04-21T09:35:10.790Z,37.77
2019-04-21T09:38:26.466Z,38.73
2019-04-21T09:41:25.812Z,38.73
2019-04-21T09:44:36.759Z,38.21
2019-04-21T09:47:47.025Z,38.60
2019-04-21T09:50:48.003Z,39.46
2019-04-21T09:54:01.918Z,38.58
2019-04-21T09:57:08.926Z,39.20
2019-04-21T10:00:18.766Z,39.56
2019-04-21T10:03:21.214Z,39.87
2019-04-21T10:06:28.487Z,39.92
2019-04-21T10:09:35.583Z,39.11
2019-04-21T10:12:43.281Z,40.32
2019-04-21T10:16:03.667Z,40.19
2019-04-21T10:19:11.193Z,40.93
2019-04-21T10:22:18.996Z,40.41
2019-04-21T10:25:25.387Z,38.63
2019-04-21T10:28:32.932Z,39.18
2019-04-21T10:31:40.654Z,39.92
2019-04-21T10:34:47.590Z,40.43
2019-04-21T10:38:09.038Z,40.25
2019-04-21T10:41:03.398Z,39.82
2019-04-21T10:44:11.341Z,41.37
2019-04-21T10:47:18.617Z,41.66
2019-04-21T10:50:24.959Z,41.64
2019-04-21T10:53:34.556Z,40.79
2019-04-21T10:56:43.807Z,39.56
2019-04-21T10:59:52.733Z,41.92
2019-04-21T11:03:17.160Z,40.47
2019-04-21T11:06:24.436Z,40.50
2019-04-21T11:09:31.923Z,40.29
2019-04-21T11:12:39.738Z,40.99
2019-04-21T11:15:47.522Z,40.56
2019-04-21T11:18:54.239Z,41.25
2019-04-21T11:22:01.019Z,40.03
2019-04-21T11:25:07.626Z,38.13
2019-04-21T11:28:14.446Z,38.13
2019-04-21T11:31:21.144Z,37.79
2019-04-21T11:34:29.267Z,36.64
2019-04-21T11:37:35.734Z,36.99
2019-04-21T11:40:43.369Z,37.62
2019-04-21T11:43:50.882Z,36.98
2019-04-21T11:46:58.361Z,37.62
2019-04-21T11:50:13.039Z,37.62
2019-04-21T11:53:20.935Z,38.64
2019-04-21T11:56:27.573Z,37.26
2019-04-21T11:59:35.484Z,38.64
2019-04-21T12:02:43.734Z,38.57
2019-04-21T12:05:51.202Z,39.58
2019-04-21T12:09:01.065Z,39.05
2019-04-21T12:12:07.366Z,40.54
2019-04-21T12:15:14.312Z,38.79
2019-04-21T12:18:22.240Z,38.79
2019-04-21T12:21:39.089Z,39.49
2019-04-21T12:24:38.136Z,37.53
2019-04-21T12:27:45.924Z,38.13
2019-04-21T12:30:53.867Z,36.37
2019-04-21T12:34:03.571Z,38.10
2019-04-21T12:37:10.931Z,37.50
2019-04-21T12:40:18.731Z,38.43
2019-04-21T12:43:26.499Z,38.35
2019-04-21T12:46:33.952Z,39.13
2019-04-21T12:49:41.392Z,40.37
2019-04-21T12:52:47.872Z,40.43
2019-04-21T12:55:55.731Z,40.43
2019-04-21T12:59:02.910Z,40.01
2019-04-21T13:02:09.667Z,40.01
2019-04-21T13:05:17.827Z,39.64
2019-04-21T13:08:25.026Z,41.13
2019-04-21T13:11:33.152Z,41.17
2019-04-21T13:14:39.975Z,41.19
2019-04-21T13:17:47.363Z,41.49
2019-04-21T13:20:54.121Z,43.67
2019-04-21T13:24:00.994Z,44.06
2019-04-21T13:27:09.466Z,42.31
2019-04-21T13:30:18.115Z,42.22
2019-04-21T13:33:25.130Z,41.27
2019-04-21T13:36:33.788Z,40.52
2019-04-21T13:40:34.515Z,40.16
2019-04-21T13:43:27.259Z,40.16
2019-04-21T13:46:34.559Z,39.78
2019-04-21T13:49:41.495Z,38.90
2019-04-21T13:52:48.938Z,39.77
2019-04-21T13:55:56.450Z,39.13
2019-04-21T13:59:04.198Z,38.74
2019-04-21T14:02:11.231Z,38.74
2019-04-21T14:05:18.478Z,38.23
2019-04-21T14:08:25.370Z,36.28
2019-04-21T14:11:33.565Z,36.21
2019-04-21T14:14:42.044Z,35.51
2019-04-21T14:17:48.984Z,35.41
2019-04-21T14:20:55.719Z,36.19
2019-04-21T14:24:02.843Z,36.40
2019-04-21T14:27:10.169Z,37.74
2019-04-21T14:30:18.577Z,37.49
2019-04-21T14:33:26.027Z,39.13
2019-04-21T14:36:37.043Z,39.30
2019-04-21T14:39:55.276Z,38.99
2019-04-21T14:42:52.191Z,39.03
2019-04-21T14:46:02.968Z,39.35
2019-04-21T14:49:27.163Z,40.22
2019-04-21T14:52:37.079Z,38.39
2019-04-21T14:55:45.758Z,38.37
2019-04-21T14:58:55.587Z,38.20
2019-04-21T15:02:02.022Z,38.36
2019-04-21T15:05:09.445Z,37.21
2019-04-21T15:08:17.289Z,37.21
2019-04-21T15:11:24.232Z,37.05
2019-04-21T15:14:31.882Z,36.40
2019-04-21T15:17:39.855Z,37.16
2019-04-21T15:20:48.605Z,38.39
2019-04-21T15:23:54.386Z,38.45
2019-04-21T15:27:01.085Z,38.50
2019-04-21T15:30:09.143Z,38.79
2019-04-21T15:33:16.289Z,39.79
2019-04-21T15:36:22.919Z,39.29
2019-04-21T15:39:29.853Z,39.73
2019-04-21T15:42:36.695Z,40.02
2019-04-21T15:45:44.284Z,41.23
2019-04-21T15:48:51.082Z,40.73
2019-04-21T15:51:58.140Z,40.67
2019-04-21T15:55:10.635Z,40.29
2019-04-21T15:58:36.788Z,39.66
2019-04-21T16:01:57.022Z,39.02
2019-04-21T16:05:04.723Z,38.57
2019-04-21T16:08:12.211Z,38.12
2019-04-21T16:11:19.823Z,38.33
2019-04-21T16:14:27.022Z,38.37
2019-04-21T16:17:35.101Z,38.07
2019-04-21T16:20:41.895Z,38.42
2019-04-21T16:23:48.604Z,38.67
2019-04-21T16:26:56.464Z,39.47
2019-04-21T16:30:03.908Z,40.00
2019-04-21T16:33:10.517Z,39.56
2019-04-21T16:36:18.329Z,39.63
2019-04-21T16:39:25.346Z,39.87
2019-04-21T16:42:32.182Z,40.37
2019-04-21T16:45:39.135Z,40.43
2019-04-21T16:48:46.019Z,40.24
2019-04-21T16:52:12.014Z,40.90
2019-04-21T16:55:26.917Z,40.51
2019-04-21T16:58:40.910Z,41.06
2019-04-21T17:01:48.826Z,41.38
2019-04-21T17:04:56.260Z,41.64
2019-04-21T17:08:03.977Z,41.31
2019-04-21T17:11:17.538Z,40.99
2019-04-21T17:14:39.295Z,41.36
2019-04-21T17:17:49.967Z,41.97
2019-04-21T17:20:44.975Z,41.43
2019-04-21T17:23:44.348Z,41.94
2019-04-21T17:26:51.350Z,42.16
2019-04-21T17:29:58.978Z,43.11
2019-04-21T17:33:05.777Z,42.48
2019-04-21T17:36:12.127Z,42.35
2019-04-21T17:39:18.756Z,42.42
2019-04-21T17:42:34.457Z,42.31
2019-04-21T17:45:33.290Z,42.66
2019-04-21T17:48:40.676Z,42.68
2019-04-21T17:52:11.057Z,42.82
2019-04-21T17:55:28.356Z,43.12
2019-04-21T17:58:52.370Z,42.87
2019-04-21T18:01:59.264Z,42.70
2019-04-21T18:05:19.314Z,42.31
2019-04-21T18:08:18.469Z,42.34
2019-04-21T18:11:18.153Z,43.35
2019-04-21T18:14:15.918Z,43.65
2019-04-21T18:17:24.664Z,43.92
2019-04-21T18:20:33.302Z,44.78
2019-04-21T18:23:54.799Z,45.51
2019-04-21T18:26:58.848Z,46.05
2019-04-21T18:30:06.402Z,46.40
2019-04-21T18:33:23.384Z,47.39
2019-04-21T18:36:34.937Z,47.32
2019-04-21T18:39:55.830Z,48.69
2019-04-21T18:43:23.784Z,48.90
2019-04-21T18:46:38.679Z,48.90
2019-04-21T18:49:45.977Z,49.36
2019-04-21T18:53:13.659Z,49.26
2019-04-21T18:56:12.887Z,49.70
2019-04-21T18:59:21.209Z,50.12
2019-04-21T19:02:26.425Z,49.89
2019-04-21T19:05:34.385Z,50.75
2019-04-21T19:12:08.732Z,50.35
2019-04-21T19:15:15.785Z,51.12
2019-04-21T19:18:40.125Z,51.07
2019-04-21T19:21:28.382Z,51.33
2019-04-21T19:24:41.126Z,51.54
2019-04-21T19:27:51.628Z,51.79
2019-04-21T19:31:05.187Z,52.17
2019-04-21T19:34:01.000Z,52.49
2019-04-21T19:37:00.931Z,52.88
2019-04-21T19:40:16.146Z,53.29
2019-04-21T19:43:33.046Z,53.59
2019-04-21T19:46:35.698Z,53.81
2019-04-21T19:49:49.964Z,54.46
2019-04-21T19:52:46.723Z,54.25
2019-04-21T19:55:43.943Z,54.28
2019-04-21T19:58:50.872Z,54.73
2019-04-21T20:01:58.319Z,54.73
2019-04-21T20:05:12.554Z,54.86
2019-04-21T20:08:29.074Z,55.95
2019-04-21T20:11:37.221Z,55.19
2019-04-21T20:14:55.462Z,55.17
2019-04-21T20:17:57.555Z,55.52
2019-04-21T20:20:48.135Z,54.72
2019-04-21T20:23:57.452Z,55.56
2019-04-21T20:27:11.456Z,55.27
2019-04-21T20:30:32.805Z,55.49
2019-04-21T20:36:47.637Z,55.82
2019-04-21T20:39:46.228Z,55.65
2019-04-21T20:42:58.867Z,55.92
2019-04-21T20:46:07.960Z,56.21
2019-04-21T20:49:14.107Z,56.04
2019-04-21T20:52:29.464Z,56.36
2019-04-21T20:55:26.522Z,56.49
2019-04-21T20:58:40.789Z,56.72
2019-04-21T21:01:49.485Z,56.97
2019-04-21T21:04:52.690Z,57.25
2019-04-21T21:08:13.755Z,56.98
2019-04-21T21:11:08.168Z,57.34
2019-04-21T21:14:21.989Z,57.43
2019-04-21T21:20:35.781Z,57.47
2019-04-21T21:23:49.696Z,57.22
2019-04-21T21:26:54.437Z,57.11
2019-04-21T21:30:02.543Z,57.11
2019-04-21T21:33:15.222Z,56.84
2019-04-21T21:36:21.339Z,56.68
2019-04-21T21:39:31.722Z,56.79
2019-04-21T21:42:27.550Z,56.44
2019-04-21T21:45:30.652Z,56.51
2019-04-21T21:48:49.194Z,56.34
2019-04-21T21:51:56.771Z,56.58
2019-04-21T21:54:51.903Z,56.20
2019-04-21T21:58:02.481Z,56.21
2019-04-21T22:01:09.848Z,56.42
2019-04-21T22:04:24.866Z,56.14
2019-04-21T22:07:31.023Z,56.06
2019-04-21T22:10:34.869Z,55.77
2019-04-21T22:13:49.095Z,55.98
2019-04-21T22:17:07.499Z,55.93
2019-04-21T22:20:17.045Z,55.74
2019-04-21T22:23:13.343Z,55.68
2019-04-21T22:26:15.715Z,55.50
2019-04-21T22:29:23.406Z,55.54
2019-04-21T22:32:31.436Z,55.45
2019-04-21T22:35:44.317Z,55.17
2019-04-21T22:39:07.043Z,55.14
2019-04-21T22:42:01.841Z,55.08
2019-04-21T22:45:02.411Z,55.15
2019-04-21T22:48:14.333Z,54.94
2019-04-21T22:51:25.290Z,54.79
2019-04-21T22:54:32.614Z,54.83
2019-04-21T22:57:41.684Z,54.61
2019-04-21T23:00:46.407Z,54.54
2019-04-21T23:03:58.292Z,54.29
2019-04-21T23:07:07.233Z,54.28
2019-04-21T23:10:09.442Z,54.16
2019-04-21T23:13:20.299Z,53.81
2019-04-21T23:16:30.106Z,53.76
2019-04-21T23:19:46.252Z,53.38
2019-04-21T23:23:05.196Z,53.13
2019-04-21T23:26:09.175Z,52.89
2019-04-21T23:29:18.487Z,52.92
2019-04-21T23:32:19.709Z,52.63
2019-04-21T23:35:25.774Z,52.62
2019-04-21T23:38:31.956Z,52.74
2019-04-21T23:41:36.117Z,52.58
2019-04-21T23:44:41.524Z,52.80
2019-04-21T23:47:59.123Z,52.40
2019-04-21T23:51:08.133Z,52.27
2019-04-21T23:54:02.782Z,52.24
2019-04-21T23:57:17.006Z,52.07
